首页
METAR-TAF:

METAR-TAF

机场 :

杜桑·卢维杜尔国际机场

太子港, 海地

纬度: 18-34N, 经度: 072-18W, 海拔: 31米

当前天气观测

该预报发布于7小时和45分钟前的02:00 UTC
风速9节,风向东南
温度 30°C
湿度 70%
气压 1014 hPa
能見度: 8000
散云层高于2400英尺, 积雨云.
多云层高于6000英尺

METAR: MTPP 160200Z 13009KT 8000 SCT024CB BKN060 30/24 Q101 A2995 RMK/CB/N/S

时间: 05:45 (09:45 UTC)

预报

该预报发布于15小时和59分钟前的17:46 UTC
预报有效从15日的 18点(UTC)到 16日的 18点(UTC)
风速9节,风向
能見度: 9000
少量云层高于3000英尺
从 15日的 1800点(UTC)
风速12节,风向西转西北
能见度10公里或以上
散云层高于3000英尺
几率 40% :
短暂存在
从 16日的 03点(UTC)到 16日的 06点(UTC)
能見度: 4500
散云层高于1800英尺, 积雨云.
散云层高于4000英尺
雷暴, 雨
从 16日的 0700点(UTC)
风速10节,风向
能見度: 8000
少量云层高于1800英尺

TAF: MTPP 151746Z 1518/1618 08009KT 9000 FEW030 FM151800 30012KT 9999 SCT030 PROB40 TEMPO 1603/1606 4500 TSRA SCT018CB SCT040 FM160700 09010KT 8000 FEW018

超过4000个机场的气象观测和天气预报(METAR&TAF报告)。

可查询的气象台以黄色和红色小点在地图上表示。

将鼠标移到小点上方,可查看气象台名称。

然后点击查看天气观测和预报。

如需切换地图:点击带黑十字的绿色按钮放大地图;点击带横线的绿色按钮缩小地图;或者点击绿色箭头查看邻近地区的地图。


METAR-TAF: